createdAt,value
2018-06-25T00:01:07.133Z,11.00
2018-06-25T00:03:36.581Z,10.73
2018-06-25T00:06:24.319Z,10.80
2018-06-25T00:08:53.801Z,11.10
2018-06-25T00:11:23.088Z,11.73
2018-06-25T00:13:52.741Z,11.77
2018-06-25T00:16:22.376Z,12.17
2018-06-25T00:18:51.828Z,12.83
2018-06-25T00:21:22.425Z,12.30
2018-06-25T00:23:52.005Z,12.93
2018-06-25T00:26:21.473Z,12.57
2018-06-25T00:28:55.988Z,12.60
2018-06-25T00:31:25.427Z,12.43
2018-06-25T00:33:55.132Z,14.17
2018-06-25T00:36:24.484Z,13.93
2018-06-25T00:38:54.128Z,14.07
2018-06-25T00:41:26.000Z,14.30
2018-06-25T00:43:55.694Z,15.13
2018-06-25T00:46:25.049Z,13.83
2018-06-25T00:48:56.677Z,15.10
2018-06-25T00:51:26.032Z,14.80
2018-06-25T00:53:55.578Z,13.70
2018-06-25T00:56:32.958Z,14.53
2018-06-25T00:59:13.691Z,13.43
2018-06-25T01:01:43.459Z,13.40
2018-06-25T01:04:12.875Z,15.20
2018-06-25T01:06:42.999Z,14.87
2018-06-25T01:09:13.285Z,14.50
2018-06-25T01:11:49.669Z,14.37
2018-06-25T01:14:19.225Z,13.30
2018-06-25T01:17:00.762Z,13.07
2018-06-25T01:19:30.493Z,14.83
2018-06-25T01:22:00.037Z,14.53
2018-06-25T01:24:29.489Z,13.27
2018-06-25T01:26:58.959Z,13.50
2018-06-25T01:29:28.462Z,14.03
2018-06-25T01:32:04.092Z,13.90
2018-06-25T01:34:33.992Z,13.87
2018-06-25T01:37:03.957Z,14.13
2018-06-25T01:39:34.453Z,14.33
2018-06-25T01:42:04.103Z,13.80
2018-06-25T01:44:34.971Z,14.03
2018-06-25T01:47:04.439Z,14.37
2018-06-25T01:49:33.765Z,13.47
2018-06-25T01:52:03.402Z,12.90
2018-06-25T01:54:35.063Z,13.40
2018-06-25T01:57:04.966Z,13.50
2018-06-25T01:59:34.840Z,13.47
2018-06-25T02:02:04.646Z,11.93
2018-06-25T02:04:34.390Z,12.50
2018-06-25T02:07:03.804Z,11.40
2018-06-25T02:09:33.325Z,12.13
2018-06-25T02:12:02.824Z,11.90
2018-06-25T02:14:32.871Z,10.93
2018-06-25T02:17:02.416Z,12.23
2018-06-25T02:19:31.920Z,11.70
2018-06-25T02:22:01.490Z,11.50
2018-06-25T02:24:31.066Z,10.90
2018-06-25T02:27:00.892Z,11.57
2018-06-25T02:29:30.395Z,11.73
2018-06-25T02:31:59.855Z,12.37
2018-06-25T02:34:29.293Z,10.93
2018-06-25T02:36:58.835Z,11.23
2018-06-25T02:39:28.335Z,10.50
2018-06-25T02:41:57.882Z,11.40
2018-06-25T02:44:27.446Z,13.10
2018-06-25T02:46:57.118Z,12.80
2018-06-25T02:49:26.518Z,11.80
2018-06-25T02:51:55.965Z,12.00
2018-06-25T02:54:25.529Z,11.33
2018-06-25T02:56:56.031Z,11.80
2018-06-25T02:59:25.589Z,12.23
2018-06-25T03:01:55.022Z,12.73
2018-06-25T03:04:24.388Z,12.23
2018-06-25T03:06:53.754Z,12.33
2018-06-25T03:09:23.192Z,11.97
2018-06-25T03:11:52.586Z,12.80
2018-06-25T03:14:22.264Z,12.20
2018-06-25T03:16:51.728Z,11.90
2018-06-25T03:19:21.084Z,13.20
2018-06-25T03:21:50.666Z,12.00
2018-06-25T03:24:20.625Z,12.10
2018-06-25T03:26:50.334Z,13.57
2018-06-25T03:29:19.818Z,13.20
2018-06-25T03:31:54.187Z,12.33
2018-06-25T03:34:23.692Z,12.07
2018-06-25T03:36:53.443Z,12.90
2018-06-25T03:39:34.871Z,11.30
2018-06-25T03:42:04.298Z,13.60
2018-06-25T03:44:36.641Z,11.23
2018-06-25T03:47:06.947Z,12.13
2018-06-25T03:49:36.621Z,11.00
2018-06-25T03:52:05.908Z,12.33
2018-06-25T03:54:35.275Z,11.37
2018-06-25T03:57:04.950Z,11.97
2018-06-25T03:59:34.414Z,12.40
2018-06-25T04:02:05.944Z,12.57
2018-06-25T04:04:35.472Z,12.53
2018-06-25T04:07:04.871Z,11.93
2018-06-25T04:09:34.072Z,11.87
2018-06-25T04:12:03.500Z,12.57
2018-06-25T04:14:32.816Z,12.90
2018-06-25T04:17:02.501Z,12.07
2018-06-25T04:19:44.083Z,12.77
2018-06-25T04:22:13.736Z,12.20
2018-06-25T04:24:43.260Z,11.73
2018-06-25T04:27:12.496Z,12.00
2018-06-25T04:29:41.727Z,11.33
2018-06-25T04:32:11.217Z,12.90
2018-06-25T04:34:48.091Z,12.20
2018-06-25T04:37:17.567Z,12.20
2018-06-25T04:39:46.883Z,12.70
2018-06-25T04:42:18.479Z,13.20
2018-06-25T04:44:47.861Z,12.67
2018-06-25T04:47:17.199Z,13.20
2018-06-25T04:49:48.648Z,11.50
2018-06-25T04:52:30.277Z,13.17
2018-06-25T04:54:59.691Z,11.83
2018-06-25T04:57:28.971Z,12.13
2018-06-25T04:59:58.301Z,12.80
2018-06-25T05:02:27.794Z,12.57
2018-06-25T05:04:57.134Z,11.97
2018-06-25T05:07:26.652Z,12.07
2018-06-25T05:09:57.127Z,11.77
2018-06-25T05:12:32.030Z,11.57
2018-06-25T05:15:02.337Z,11.97
2018-06-25T05:17:32.942Z,12.20
2018-06-25T05:20:04.773Z,13.10
2018-06-25T05:22:51.456Z,12.97
2018-06-25T05:25:20.896Z,12.97
2018-06-25T05:27:50.450Z,12.87
2018-06-25T05:30:25.698Z,12.53
2018-06-25T05:32:55.230Z,13.50
2018-06-25T05:35:24.588Z,14.20
2018-06-25T05:37:54.695Z,12.40
2018-06-25T05:40:24.211Z,13.37
2018-06-25T05:42:55.571Z,13.67
2018-06-25T05:45:24.907Z,12.13
2018-06-25T05:47:54.357Z,13.50
2018-06-25T05:50:42.725Z,13.10
2018-06-25T05:53:12.168Z,12.63
2018-06-25T05:55:41.576Z,11.77
2018-06-25T05:58:11.287Z,12.60
2018-06-25T06:00:45.623Z,11.63
2018-06-25T06:03:14.956Z,11.37
2018-06-25T06:05:46.244Z,12.80
2018-06-25T06:08:16.272Z,11.80
2018-06-25T06:10:53.063Z,13.73
2018-06-25T06:13:22.640Z,11.63
2018-06-25T06:15:54.177Z,12.33
2018-06-25T06:18:23.728Z,12.63
2018-06-25T06:20:53.399Z,12.33
2018-06-25T06:29:20.989Z,12.20
2018-06-25T06:31:50.417Z,13.70
2018-06-25T06:34:26.043Z,11.43
2018-06-25T06:36:55.486Z,11.27
2018-06-25T06:39:25.216Z,11.00
2018-06-25T06:41:54.544Z,10.27
2018-06-25T06:44:23.908Z,9.90
2018-06-25T06:46:53.485Z,9.60
2018-06-25T06:49:27.277Z,8.93
2018-06-25T06:52:03.470Z,7.53
2018-06-25T06:54:32.782Z,8.03
2018-06-25T06:57:02.384Z,7.70
2018-06-25T06:59:31.858Z,8.20
2018-06-25T07:02:01.254Z,7.67
2018-06-25T07:04:30.556Z,13.00
2018-06-25T07:06:59.896Z,7.40
2018-06-25T07:09:29.196Z,7.40
2018-06-25T07:12:19.076Z,7.70
2018-06-25T07:14:48.900Z,7.57
2018-06-25T07:17:18.965Z,7.53
2018-06-25T07:19:48.315Z,8.33
2018-06-25T07:22:18.009Z,6.13
2018-06-25T07:24:47.433Z,7.07
2018-06-25T07:27:17.021Z,12.10
2018-06-25T07:29:46.519Z,6.47
2018-06-25T07:32:21.384Z,6.13
2018-06-25T07:37:50.955Z,7.00
2018-06-25T07:40:20.447Z,6.37
2018-06-25T07:42:49.737Z,11.27
2018-06-25T07:45:19.023Z,6.10
2018-06-25T07:47:48.930Z,5.43
2018-06-25T07:50:18.186Z,5.77
2018-06-25T07:52:47.436Z,6.70
2018-06-25T07:55:16.639Z,6.43
2018-06-25T07:57:45.833Z,6.63
2018-06-25T08:00:15.212Z,7.73
2018-06-25T08:02:44.483Z,5.17
2018-06-25T08:05:14.744Z,4.90
2018-06-25T08:07:43.981Z,4.47
2018-06-25T08:10:13.323Z,6.20
2018-06-25T08:12:42.996Z,5.63
2018-06-25T08:15:12.999Z,4.80
2018-06-25T08:17:42.209Z,5.13
2018-06-25T08:20:11.467Z,6.40
2018-06-25T08:22:40.724Z,5.93
2018-06-25T08:25:09.942Z,5.87
2018-06-25T08:27:39.385Z,5.07
2018-06-25T08:30:08.783Z,5.80
2018-06-25T08:32:38.912Z,5.77
2018-06-25T08:35:09.155Z,6.10
2018-06-25T08:37:38.712Z,6.10
2018-06-25T08:40:08.021Z,6.57
2018-06-25T08:42:37.321Z,6.17
2018-06-25T08:45:06.733Z,5.60
2018-06-25T08:47:36.028Z,5.30
2018-06-25T08:50:10.425Z,5.33
2018-06-25T08:52:39.761Z,5.23
2018-06-25T08:55:08.908Z,5.30
2018-06-25T08:57:38.158Z,4.80
2018-06-25T09:00:08.070Z,5.10
2018-06-25T09:02:37.376Z,6.87
2018-06-25T09:05:06.839Z,6.40
2018-06-25T09:07:36.044Z,6.50
2018-06-25T09:10:05.370Z,6.23
2018-06-25T09:12:35.209Z,5.73
2018-06-25T09:15:04.697Z,5.40
2018-06-25T09:17:33.968Z,6.13
2018-06-25T09:20:03.327Z,6.93
2018-06-25T09:22:32.669Z,5.63
2018-06-25T09:25:01.963Z,6.30
2018-06-25T09:27:49.491Z,6.97
2018-06-25T09:30:19.790Z,6.17
2018-06-25T09:32:49.217Z,6.60
2018-06-25T09:35:18.658Z,6.77
2018-06-25T09:37:47.901Z,6.60
2018-06-25T09:40:22.697Z,7.47
2018-06-25T09:42:52.430Z,8.07
2018-06-25T09:45:21.880Z,7.80
2018-06-25T09:47:51.574Z,8.20
2018-06-25T09:50:20.810Z,7.20
2018-06-25T09:52:52.230Z,9.00
2018-06-25T09:55:24.614Z,7.03
2018-06-25T09:57:57.013Z,7.70
2018-06-25T10:00:34.149Z,8.00
2018-06-25T10:03:06.631Z,7.30
2018-06-25T10:05:39.106Z,8.07
2018-06-25T10:08:11.957Z,7.70
2018-06-25T10:10:44.346Z,7.30
2018-06-25T10:13:16.412Z,8.33
2018-06-25T10:15:49.173Z,8.03
2018-06-25T10:18:21.945Z,7.60
2018-06-25T10:20:54.521Z,7.27
2018-06-25T10:23:27.828Z,6.73
2018-06-25T10:26:00.301Z,6.90
2018-06-25T10:28:32.690Z,6.30
2018-06-25T10:31:04.905Z,6.10
2018-06-25T10:33:36.500Z,6.70
2018-06-25T10:36:09.191Z,7.00
2018-06-25T10:38:42.288Z,7.17
2018-06-25T10:41:14.776Z,6.00
2018-06-25T10:43:46.795Z,5.17
2018-06-25T10:46:19.240Z,5.83
2018-06-25T10:48:51.046Z,5.33
2018-06-25T10:51:22.690Z,5.60
2018-06-25T10:53:54.893Z,5.70
2018-06-25T10:56:27.563Z,5.10
2018-06-25T10:58:59.901Z,5.37
2018-06-25T11:01:32.741Z,4.57
2018-06-25T11:04:05.111Z,5.20
2018-06-25T11:06:37.031Z,5.60
2018-06-25T11:09:12.200Z,5.60
2018-06-25T11:11:44.174Z,5.67
2018-06-25T11:14:16.650Z,4.90
2018-06-25T11:16:48.560Z,4.40
2018-06-25T11:19:21.091Z,3.60
2018-06-25T11:21:53.053Z,3.97
2018-06-25T11:24:24.711Z,3.73
2018-06-25T11:26:56.754Z,4.67
2018-06-25T11:29:29.730Z,5.10
2018-06-25T11:32:01.938Z,4.00
2018-06-25T11:34:34.400Z,3.83
2018-06-25T11:37:06.063Z,4.93
2018-06-25T11:39:37.852Z,4.10
2018-06-25T11:42:10.496Z,4.10
2018-06-25T11:44:42.252Z,4.03
2018-06-25T11:47:13.700Z,4.30
2018-06-25T12:22:47.229Z,7.77
2018-06-25T12:25:21.501Z,5.80
2018-06-25T12:27:54.326Z,6.27
2018-06-25T12:30:23.744Z,6.47
2018-06-25T12:32:53.078Z,18.03
2018-06-25T12:35:24.683Z,13.50
2018-06-25T12:37:54.095Z,13.33
2018-06-25T12:40:23.872Z,5.67
2018-06-25T12:42:53.378Z,5.80
2018-06-25T12:45:22.856Z,5.37
2018-06-25T12:47:52.292Z,4.10
2018-06-25T12:50:25.689Z,3.23
2018-06-25T12:52:55.332Z,4.20
2018-06-25T12:55:24.904Z,3.63
2018-06-25T12:57:54.295Z,3.50
2018-06-25T13:00:23.864Z,3.97
2018-06-25T13:02:53.806Z,4.03
2018-06-25T13:05:23.332Z,4.00
2018-06-25T13:07:52.927Z,2.90
2018-06-25T13:10:22.546Z,3.30
2018-06-25T13:12:52.000Z,3.80
2018-06-25T13:15:21.438Z,3.37
2018-06-25T13:17:50.739Z,3.93
2018-06-25T13:20:20.053Z,3.30
2018-06-25T13:22:49.555Z,3.87
2018-06-25T13:25:19.788Z,3.80
2018-06-25T13:27:49.249Z,3.53
2018-06-25T13:30:18.613Z,3.90
2018-06-25T13:32:47.862Z,3.30
2018-06-25T13:35:17.939Z,3.30
2018-06-25T13:43:46.558Z,3.43
2018-06-25T13:46:15.998Z,3.00
2018-06-25T13:48:45.454Z,3.30
2018-06-25T13:51:14.998Z,4.07
2018-06-25T13:53:44.620Z,4.30
2018-06-25T13:56:14.091Z,3.73
2018-06-25T13:58:43.496Z,3.20
2018-06-25T14:01:12.997Z,3.90
2018-06-25T14:03:42.437Z,3.70
2018-06-25T14:06:11.707Z,3.23
2018-06-25T14:08:48.518Z,3.70
2018-06-25T14:11:17.954Z,3.67
2018-06-25T14:13:47.597Z,3.47
2018-06-25T14:16:17.090Z,2.87
2018-06-25T14:18:46.726Z,3.53
2018-06-25T14:21:16.173Z,3.90
2018-06-25T14:23:51.394Z,4.00
2018-06-25T14:26:21.323Z,3.63
2018-06-25T14:29:03.700Z,4.37
2018-06-25T14:31:46.208Z,3.83
2018-06-25T14:34:32.851Z,4.10
2018-06-25T14:37:09.696Z,3.50
2018-06-25T14:39:42.845Z,3.97
2018-06-25T14:42:13.808Z,3.23
2018-06-25T14:44:43.332Z,3.33
2018-06-25T14:47:13.797Z,3.10
2018-06-25T14:49:45.391Z,3.47
2018-06-25T14:52:15.032Z,3.80
2018-06-25T14:54:44.397Z,3.50
2018-06-25T14:57:15.910Z,2.57
2018-06-25T14:59:55.481Z,3.73
2018-06-25T15:02:36.759Z,3.13
2018-06-25T15:05:18.292Z,4.40
2018-06-25T15:10:46.169Z,3.57
2018-06-25T15:13:17.886Z,3.73
2018-06-25T15:15:47.770Z,3.87
2018-06-25T15:18:18.277Z,3.00
2018-06-25T15:20:47.939Z,3.40
2018-06-25T15:23:22.998Z,3.20
2018-06-25T15:25:52.693Z,2.80
2018-06-25T15:28:22.121Z,3.67
2018-06-25T15:30:51.482Z,3.80
2018-06-25T15:33:21.493Z,3.27
2018-06-25T15:35:50.833Z,3.43
2018-06-25T15:38:20.631Z,3.70
2018-06-25T15:40:50.180Z,4.03
2018-06-25T15:43:19.551Z,4.27
2018-06-25T15:45:50.347Z,3.70
2018-06-25T15:48:28.255Z,4.20
2018-06-25T15:51:01.601Z,3.73
2018-06-25T15:53:38.822Z,3.67
2018-06-25T15:59:05.721Z,3.23
2018-06-25T16:01:36.116Z,3.03
2018-06-25T16:04:05.921Z,3.60
2018-06-25T16:06:36.075Z,3.30
2018-06-25T16:09:09.081Z,3.53
2018-06-25T16:11:39.416Z,3.00
2018-06-25T16:27:45.678Z,3.43
2018-06-25T16:30:16.269Z,4.97
2018-06-25T16:36:07.208Z,3.73
2018-06-25T16:41:43.250Z,3.63
2018-06-25T16:44:23.623Z,3.90
2018-06-25T16:46:55.965Z,3.67
2018-06-25T16:49:29.787Z,3.70
2018-06-25T16:52:02.039Z,3.97
2018-06-25T16:57:09.912Z,3.73
2018-06-25T17:02:24.893Z,4.50
2018-06-25T17:04:58.961Z,4.27
2018-06-25T17:07:40.198Z,3.40
2018-06-25T17:10:11.509Z,3.40
2018-06-25T17:12:45.350Z,3.93
2018-06-25T17:15:21.693Z,4.53
2018-06-25T17:18:08.799Z,3.90
2018-06-25T17:23:42.884Z,4.00
2018-06-25T17:26:33.598Z,3.67
2018-06-25T17:29:09.199Z,3.40
2018-06-25T17:31:45.078Z,4.17
2018-06-25T17:34:26.350Z,3.83
2018-06-25T17:36:57.223Z,4.10
2018-06-25T17:39:27.029Z,4.07
2018-06-25T17:41:56.513Z,4.23
2018-06-25T17:44:26.184Z,4.40
2018-06-25T17:46:56.631Z,4.90
2018-06-25T17:49:27.363Z,4.47
2018-06-25T17:51:58.779Z,4.60
2018-06-25T18:06:46.143Z,5.23
2018-06-25T18:09:16.014Z,4.63
2018-06-25T18:11:45.655Z,4.60
2018-06-25T18:14:17.879Z,4.90
2018-06-25T18:16:50.770Z,5.27
2018-06-25T18:19:25.084Z,4.70
2018-06-25T18:21:56.863Z,4.57
2018-06-25T18:24:30.101Z,5.17
2018-06-25T18:27:03.208Z,4.80
2018-06-25T18:29:34.968Z,5.40
2018-06-25T18:32:14.204Z,5.17
2018-06-25T18:34:45.813Z,5.97
2018-06-25T18:40:44.665Z,5.23
2018-06-25T18:49:37.611Z,5.70
2018-06-25T18:56:13.814Z,5.33
2018-06-25T18:59:10.679Z,5.50
2018-06-25T19:04:51.898Z,6.23
2018-06-25T19:07:52.472Z,5.83
2018-06-25T19:10:38.970Z,6.50
2018-06-25T19:13:43.474Z,6.10
2018-06-25T19:16:32.722Z,6.20
2018-06-25T19:22:13.631Z,6.00
2018-06-25T19:25:04.617Z,6.23
2018-06-25T19:30:46.531Z,7.30
2018-06-25T19:36:31.485Z,6.00
2018-06-25T19:39:26.070Z,7.87
2018-06-25T19:42:07.400Z,6.70
2018-06-25T19:44:53.199Z,7.90
2018-06-25T19:56:43.571Z,10.17
2018-06-25T19:59:27.834Z,8.80
2018-06-25T20:02:22.029Z,11.03
2018-06-25T20:04:56.748Z,12.97
2018-06-25T20:07:32.827Z,13.57
2018-06-25T20:10:12.092Z,15.93
2018-06-25T20:13:04.025Z,14.10
2018-06-25T20:15:56.485Z,14.00
2018-06-25T20:18:39.957Z,13.13
2018-06-25T20:21:21.214Z,12.87
2018-06-25T20:23:51.680Z,13.03
2018-06-25T20:26:23.716Z,10.50
2018-06-25T20:28:54.961Z,10.57
2018-06-25T20:31:28.135Z,10.80
2018-06-25T20:34:00.864Z,10.60
2018-06-25T20:36:33.163Z,10.23
2018-06-25T20:39:07.980Z,10.43
2018-06-25T20:41:44.790Z,11.30
2018-06-25T20:44:17.192Z,10.00
2018-06-25T20:46:48.132Z,10.50
2018-06-25T20:49:18.309Z,10.77
2018-06-25T20:52:00.593Z,12.50
2018-06-25T20:54:31.977Z,9.70
2018-06-25T20:57:03.295Z,10.97
2018-06-25T20:59:38.882Z,11.50
2018-06-25T21:02:10.076Z,11.67
2018-06-25T21:04:39.707Z,11.20
2018-06-25T21:07:14.647Z,10.80
2018-06-25T21:09:44.393Z,12.47
2018-06-25T21:12:14.181Z,11.60
2018-06-25T21:14:45.302Z,13.80
2018-06-25T21:17:15.029Z,12.27
2018-06-25T21:19:44.834Z,12.80
2018-06-25T21:22:19.633Z,20.00
2018-06-25T21:24:49.281Z,18.93
2018-06-25T21:27:20.862Z,18.00
2018-06-25T21:29:52.712Z,13.97
2018-06-25T21:32:22.582Z,40.27
2018-06-25T21:35:03.186Z,41.37
2018-06-25T21:40:22.814Z,39.33
2018-06-25T21:43:01.896Z,25.73
2018-06-25T21:48:15.434Z,15.43
2018-06-25T21:51:14.023Z,16.40
2018-06-25T21:53:52.146Z,14.20
2018-06-25T21:56:27.482Z,13.37
2018-06-25T21:58:57.069Z,10.73
2018-06-25T22:01:27.015Z,10.63
2018-06-25T22:03:56.625Z,11.20
2018-06-25T22:06:26.561Z,10.73
2018-06-25T22:08:56.129Z,9.80
2018-06-25T22:11:28.344Z,10.00
2018-06-25T22:14:10.283Z,12.00
2018-06-25T22:16:41.177Z,10.13
2018-06-25T22:19:11.043Z,9.20
2018-06-25T22:21:40.420Z,10.80
2018-06-25T22:24:28.115Z,9.77
2018-06-25T22:29:59.048Z,10.33
2018-06-25T22:32:30.083Z,9.90
2018-06-25T22:35:00.994Z,9.60
2018-06-25T22:37:32.343Z,10.40
2018-06-25T22:40:03.609Z,10.87
2018-06-25T22:42:34.906Z,10.27
2018-06-25T22:45:05.158Z,10.40
2018-06-25T22:47:36.155Z,10.20
2018-06-25T22:50:10.348Z,9.80
2018-06-25T22:52:41.304Z,11.30
2018-06-25T22:55:10.755Z,10.17
2018-06-25T22:57:40.240Z,10.20
2018-06-25T23:00:09.863Z,10.00
2018-06-25T23:02:39.419Z,10.20
2018-06-25T23:05:08.846Z,10.23
2018-06-25T23:07:38.562Z,10.50
2018-06-25T23:10:07.932Z,10.30
2018-06-25T23:12:37.357Z,11.00
2018-06-25T23:15:07.110Z,10.40
2018-06-25T23:17:36.777Z,10.97
2018-06-25T23:20:06.115Z,10.83
2018-06-25T23:22:54.745Z,9.80
2018-06-25T23:25:26.369Z,11.20
2018-06-25T23:27:57.910Z,9.40
2018-06-25T23:30:29.650Z,10.03
2018-06-25T23:33:01.942Z,10.50
2018-06-25T23:36:14.742Z,11.20
2018-06-25T23:39:10.013Z,11.57
2018-06-25T23:51:17.656Z,10.30
2018-06-25T23:56:04.771Z,10.53
2018-06-25T23:59:06.427Z,10.57
